»·PEaware :: N313NK KSBA-KCMA

N313NK :: KSBA-KCMA

FLIGHT INFORMATION

Flight Status: Arrived
Operator: Privately registered:
United States
More flights under this callsign
Pilot: Sanjiv S. (4490)
Aircraft: CESSNA 170
(C170)
More flights by this aircraft type
Origin: KSBA Santa Barbara Mun
United States
Destination: KCMA Camarillo
United States
More flights between these airports :: More routes between these airports
Route: +KWANG CMA
File this flight plan on PilotEdge
Remarks: TEC route SBAN35
Altitude:
(Current/Filed)
3,000ft
Speed:
(Current/Filed)
100kts
Departed: 10-Dec-16 10:40 AM
Arrived: 10-Dec-16 11:44 AM
Distance/Time
Traveled:
39nm/1:03
Distance/Time
To Go:
Arrived

Flight Plot

Page will automatically refresh every two minutes.


Map Options




Map Legend


Flown Route
Filed Route
Departure Airport
Arrival Airport
Navaid (VOR, NDB)
Fix

Horizontal Profiles

Position Reports

Time Latitude Longitude Heading Altitude Ground
Speed
10-Dec-16 10:15 34.432443 -119.835530 70 17ft 0kts
10-Dec-16 10:16 34.432443 -119.835530 70 17ft 0kts
10-Dec-16 10:17 34.432443 -119.835530 70 17ft 0kts
10-Dec-16 10:18 34.432443 -119.835530 70 17ft 0kts
10-Dec-16 10:19 34.432443 -119.835530 70 17ft 0kts
10-Dec-16 10:20 34.432443 -119.835530 70 17ft 0kts
10-Dec-16 10:21 34.432443 -119.835530 70 17ft 0kts
10-Dec-16 10:23 34.432443 -119.835530 70 17ft 0kts
10-Dec-16 10:24 34.432443 -119.835530 70 17ft 0kts
10-Dec-16 10:24 34.432443 -119.835530 70 17ft 0kts
10-Dec-16 10:26 34.432448 -119.835510 78 17ft 1kts
10-Dec-16 10:27 34.431966 -119.835527 246 17ft 6kts
10-Dec-16 10:28 34.430916 -119.839160 249 17ft 8kts
10-Dec-16 10:28 34.430723 -119.839765 245 17ft 0kts
10-Dec-16 10:29 34.430723 -119.839765 245 17ft 0kts
10-Dec-16 10:30 34.430709 -119.839796 239 17ft 1kts
10-Dec-16 10:31 34.430598 -119.840173 245 17ft 6kts
10-Dec-16 10:32 34.409713 -119.834508 163 744ft 74kts
10-Dec-16 10:33 34.395730 -119.829608 161 1309ft 77kts
10-Dec-16 10:34 34.380434 -119.823181 0 1952ft 0kts
10-Dec-16 10:35 34.366032 -119.817898 148 2534ft 72kts
10-Dec-16 10:36 34.361974 -119.799480 99 3007ft 84kts
10-Dec-16 10:37 34.361053 -119.779621 100 3056ft 99kts
10-Dec-16 10:38 34.358346 -119.758616 101 3003ft 106kts
10-Dec-16 10:39 34.356624 -119.737858 101 3031ft 104kts
10-Dec-16 10:40 34.354480 -119.717238 98 3009ft 105kts
10-Dec-16 10:41 34.350675 -119.696422 106 2985ft 106kts
10-Dec-16 10:42 34.345953 -119.676065 106 3013ft 105kts
10-Dec-16 10:43 34.341746 -119.655467 103 3013ft 107kts
10-Dec-16 10:44 34.339028 -119.634363 99 3051ft 104kts
10-Dec-16 10:45 34.335263 -119.613345 101 2983ft 109kts
10-Dec-16 10:46 34.330930 -119.591970 103 2986ft 106kts
10-Dec-16 10:47 34.325319 -119.570926 107 3009ft 105kts
10-Dec-16 10:48 34.320334 -119.550478 112 2944ft 110kts
10-Dec-16 10:49 34.314770 -119.530743 101 2976ft 107kts
10-Dec-16 10:50 34.311840 -119.510702 79 3000ft 105kts
10-Dec-16 10:51 34.314196 -119.489936 79 3433ft 90kts
10-Dec-16 10:52 34.315291 -119.470016 94 3715ft 98kts
10-Dec-16 10:53 34.317378 -119.449554 78 3988ft 99kts
10-Dec-16 10:54 34.319251 -119.430138 82 4017ft 99kts
10-Dec-16 10:55 34.320917 -119.410880 78 4034ft 100kts
10-Dec-16 10:56 34.322858 -119.391811 80 4013ft 102kts
10-Dec-16 10:57 34.322930 -119.371855 86 4003ft 104kts
10-Dec-16 10:58 34.322695 -119.351930 81 4000ft 104kts
10-Dec-16 10:59 34.323146 -119.332949 84 4005ft 104kts
10-Dec-16 11:00 34.323183 -119.313685 81 4009ft 104kts
10-Dec-16 11:01 34.323364 -119.294834 86 3999ft 106kts
10-Dec-16 11:02 34.323227 -119.275834 85 4011ft 105kts
10-Dec-16 11:03 34.323285 -119.256471 83 3999ft 106kts
10-Dec-16 11:04 34.323692 -119.237113 86 3993ft 107kts
10-Dec-16 11:05 34.323495 -119.218037 82 3996ft 105kts
10-Dec-16 11:06 34.323557 -119.192603 85 4014ft 105kts
10-Dec-16 11:07 34.323496 -119.161671 84 3988ft 106kts
10-Dec-16 11:08 34.323396 -119.126753 84 3998ft 107kts
10-Dec-16 11:09 34.323295 -119.090617 84 3998ft 109kts
10-Dec-16 11:10 34.323225 -119.054894 84 3998ft 109kts
10-Dec-16 11:11 34.323189 -119.018000 84 3998ft 110kts
10-Dec-16 11:12 34.323141 -118.980916 84 3998ft 110kts
10-Dec-16 11:13 34.323074 -118.944274 84 3998ft 110kts
10-Dec-16 11:14 34.322976 -118.907384 84 3998ft 110kts
10-Dec-16 11:15 34.322851 -118.870530 84 3998ft 110kts
10-Dec-16 11:16 34.322708 -118.833778 84 3998ft 109kts
10-Dec-16 11:17 34.322543 -118.796859 84 3998ft 110kts
10-Dec-16 11:18 34.322429 -118.760026 84 3998ft 110kts
10-Dec-16 11:19 34.322419 -118.723047 84 3998ft 110kts
10-Dec-16 11:20 34.322515 -118.686071 84 3998ft 110kts
10-Dec-16 11:21 34.322667 -118.649101 89 3995ft 112kts
10-Dec-16 11:22 34.299563 -118.647037 253 3989ft 110kts
10-Dec-16 11:23 34.285762 -118.680216 243 3998ft 113kts
10-Dec-16 11:24 34.270345 -118.713195 242 3998ft 113kts
10-Dec-16 11:25 34.253696 -118.745322 233 3999ft 115kts
10-Dec-16 11:27 34.243888 -118.779775 266 3998ft 110kts
10-Dec-16 11:28 34.240099 -118.817833 265 3803ft 122kts
10-Dec-16 11:28 34.236923 -118.849785 265 3376ft 112kts
10-Dec-16 11:29 34.234044 -118.878558 265 3374ft 98kts
10-Dec-16 11:30 34.230688 -118.912680 264 2933ft 110kts
10-Dec-16 11:31 34.226915 -118.950515 263 2297ft 117kts
10-Dec-16 11:32 34.223195 -118.987360 263 2012ft 103kts
10-Dec-16 11:33 34.219253 -119.026276 263 1372ft 121kts
10-Dec-16 11:34 34.214961 -119.055996 255 741ft 79kts
10-Dec-16 11:35 34.213580 -119.078095 270 208ft 64kts
10-Dec-16 11:36 34.213715 -119.094438 259 66ft 24kts
10-Dec-16 11:37 34.212790 -119.095642 196 65ft 0kts
10-Dec-16 11:38 34.211211 -119.094934 121 65ft 11kts
10-Dec-16 11:39 34.210646 -119.093362 350 66ft 4kts
10-Dec-16 11:40 34.210713 -119.093383 355 66ft 0kts
10-Dec-16 11:41 34.210713 -119.093383 355 66ft 0kts

Navigation Log

Ident Type
1. KSBA Airport
2. KWANG Fix
3. CMA Navaid
4. KCMA Airport